EmailTwitter


Observations de surface / France / LFBO (07630)

Régions: Québec | Canada | États-Unis | Europe | France | UK | Ailleurs
Station
Affichage
Infos & localisation pour LFBO (07630) | Aide pour décoder les METARs

Observations prises le 2018-08-16 à 00H00 UTC à TOULOUSE/BLAGNAC, FR (LFBO)

Température: 19.0 Celsius

Point de rosée: 15.0 Celsius

Humidité relative: 78%

Indice Humidex: 23.

Vents: Sud-sud-ouest à 9 km/h ou 5 noeuds.

Pression au niveau moyen de la mer: 101.70 kilopascals.

Observation METAR:

LFBO 160000Z AUTO 20005KT CAVOK 19/15 Q1017 NOSIG=